sensor_id;sensor_type;location;lat;lon;timestamp;P1;durP1;ratioP1;P2;durP2;ratioP2
75379;SDS011;65641;44.714;37.756;2023-08-06T00:00:22;3.28;;;1.90;;
75379;SDS011;65641;44.714;37.756;2023-08-06T00:01:30;3.40;;;2.78;;
75379;SDS011;65641;44.714;37.756;2023-08-06T00:02:39;2.55;;;2.30;;
75379;SDS011;65641;44.714;37.756;2023-08-06T00:03:48;2.78;;;2.28;;
75379;SDS011;65641;44.714;37.756;2023-08-06T00:04:57;2.42;;;1.98;;
75379;SDS011;65641;44.714;37.756;2023-08-06T00:06:05;2.97;;;2.20;;
75379;SDS011;65641;44.714;37.756;2023-08-06T00:07:14;3.13;;;2.33;;
75379;SDS011;65641;44.714;37.756;2023-08-06T00:08:23;2.70;;;1.95;;
75379;SDS011;65641;44.714;37.756;2023-08-06T00:09:31;3.35;;;2.10;;
75379;SDS011;65641;44.714;37.756;2023-08-06T00:10:40;2.45;;;1.92;;
75379;SDS011;65641;44.714;37.756;2023-08-06T00:11:52;2.40;;;2.00;;
75379;SDS011;65641;44.714;37.756;2023-08-06T00:13:01;3.22;;;2.63;;
75379;SDS011;65641;44.714;37.756;2023-08-06T00:14:09;2.40;;;2.10;;
75379;SDS011;65641;44.714;37.756;2023-08-06T00:15:18;2.40;;;2.20;;
75379;SDS011;65641;44.714;37.756;2023-08-06T00:16:29;2.60;;;2.13;;
75379;SDS011;65641;44.714;37.756;2023-08-06T00:17:38;3.40;;;2.22;;
75379;SDS011;65641;44.714;37.756;2023-08-06T00:18:47;3.08;;;2.30;;
75379;SDS011;65641;44.714;37.756;2023-08-06T00:19:55;2.45;;;2.08;;
75379;SDS011;65641;44.714;37.756;2023-08-06T00:21:04;2.70;;;2.20;;
75379;SDS011;65641;44.714;37.756;2023-08-06T00:22:13;3.67;;;2.47;;
75379;SDS011;65641;44.714;37.756;2023-08-06T00:23:21;2.83;;;2.13;;
75379;SDS011;65641;44.714;37.756;2023-08-06T00:24:30;4.72;;;2.60;;
75379;SDS011;65641;44.714;37.756;2023-08-06T00:25:40;3.83;;;2.80;;
75379;SDS011;65641;44.714;37.756;2023-08-06T00:26:48;2.92;;;2.55;;
75379;SDS011;65641;44.714;37.756;2023-08-06T00:27:57;2.58;;;2.38;;
75379;SDS011;65641;44.714;37.756;2023-08-06T00:29:05;2.95;;;2.38;;
75379;SDS011;65641;44.714;37.756;2023-08-06T00:30:14;3.53;;;2.83;;
75379;SDS011;65641;44.714;37.756;2023-08-06T00:31:22;2.90;;;2.33;;
75379;SDS011;65641;44.714;37.756;2023-08-06T00:32:31;3.20;;;2.30;;
75379;SDS011;65641;44.714;37.756;2023-08-06T00:33:40;2.85;;;2.08;;
75379;SDS011;65641;44.714;37.756;2023-08-06T00:34:48;2.90;;;2.50;;
75379;SDS011;65641;44.714;37.756;2023-08-06T00:35:57;3.08;;;2.35;;
75379;SDS011;65641;44.714;37.756;2023-08-06T00:37:05;2.88;;;2.58;;
75379;SDS011;65641;44.714;37.756;2023-08-06T00:38:14;2.33;;;2.13;;
75379;SDS011;65641;44.714;37.756;2023-08-06T00:39:24;3.10;;;2.28;;
75379;SDS011;65641;44.714;37.756;2023-08-06T00:40:32;2.67;;;2.20;;
75379;SDS011;65641;44.714;37.756;2023-08-06T00:41:41;3.35;;;2.10;;
75379;SDS011;65641;44.714;37.756;2023-08-06T00:42:49;3.13;;;2.60;;
75379;SDS011;65641;44.714;37.756;2023-08-06T00:43:58;2.55;;;2.15;;
75379;SDS011;65641;44.714;37.756;2023-08-06T00:45:06;3.20;;;2.90;;
75379;SDS011;65641;44.714;37.756;2023-08-06T00:46:16;3.35;;;2.55;;
75379;SDS011;65641;44.714;37.756;2023-08-06T00:47:24;2.55;;;2.30;;
75379;SDS011;65641;44.714;37.756;2023-08-06T00:48:33;5.00;;;3.67;;
75379;SDS011;65641;44.714;37.756;2023-08-06T00:49:42;2.55;;;2.20;;
75379;SDS011;65641;44.714;37.756;2023-08-06T00:50:50;2.50;;;2.17;;
75379;SDS011;65641;44.714;37.756;2023-08-06T00:51:59;3.20;;;2.45;;
75379;SDS011;65641;44.714;37.756;2023-08-06T00:53:09;2.50;;;2.30;;
75379;SDS011;65641;44.714;37.756;2023-08-06T00:54:18;3.17;;;2.45;;
75379;SDS011;65641;44.714;37.756;2023-08-06T00:55:26;3.78;;;2.67;;
75379;SDS011;65641;44.714;37.756;2023-08-06T00:56:38;3.33;;;2.15;;
75379;SDS011;65641;44.714;37.756;2023-08-06T00:57:46;3.45;;;2.47;;
75379;SDS011;65641;44.714;37.756;2023-08-06T00:58:56;4.07;;;2.65;;
75379;SDS011;65641;44.714;37.756;2023-08-06T01:00:05;2.80;;;2.28;;
75379;SDS011;65641;44.714;37.756;2023-08-06T01:01:17;4.10;;;2.67;;
75379;SDS011;65641;44.714;37.756;2023-08-06T01:02:25;2.40;;;2.20;;
75379;SDS011;65641;44.714;37.756;2023-08-06T01:03:34;3.65;;;2.45;;
75379;SDS011;65641;44.714;37.756;2023-08-06T01:04:45;3.30;;;2.50;;
75379;SDS011;65641;44.714;37.756;2023-08-06T01:05:56;2.85;;;2.42;;
75379;SDS011;65641;44.714;37.756;2023-08-06T01:07:09;3.47;;;2.53;;
75379;SDS011;65641;44.714;37.756;2023-08-06T01:08:49;3.97;;;2.67;;
75379;SDS011;65641;44.714;37.756;2023-08-06T01:10:11;2.95;;;2.28;;
75379;SDS011;65641;44.714;37.756;2023-08-06T01:15:51;3.30;;;2.65;;
75379;SDS011;65641;44.714;37.756;2023-08-06T01:17:05;3.17;;;2.88;;
75379;SDS011;65641;44.714;37.756;2023-08-06T01:18:14;3.47;;;3.00;;
75379;SDS011;65641;44.714;37.756;2023-08-06T01:19:22;3.53;;;2.78;;
75379;SDS011;65641;44.714;37.756;2023-08-06T01:20:31;3.10;;;2.50;;
75379;SDS011;65641;44.714;37.756;2023-08-06T01:21:40;3.80;;;2.70;;
75379;SDS011;65641;44.714;37.756;2023-08-06T01:22:49;3.28;;;2.97;;
75379;SDS011;65641;44.714;37.756;2023-08-06T01:23:57;3.70;;;2.45;;
75379;SDS011;65641;44.714;37.756;2023-08-06T01:25:06;3.15;;;2.65;;
75379;SDS011;65641;44.714;37.756;2023-08-06T01:27:42;2.65;;;2.20;;
75379;SDS011;65641;44.714;37.756;2023-08-06T01:29:18;2.92;;;2.63;;
75379;SDS011;65641;44.714;37.756;2023-08-06T01:30:37;3.08;;;2.35;;
75379;SDS011;65641;44.714;37.756;2023-08-06T01:31:48;4.32;;;2.83;;
75379;SDS011;65641;44.714;37.756;2023-08-06T01:33:02;3.05;;;2.75;;
75379;SDS011;65641;44.714;37.756;2023-08-06T01:34:16;2.97;;;2.63;;
75379;SDS011;65641;44.714;37.756;2023-08-06T01:35:29;3.17;;;2.60;;
75379;SDS011;65641;44.714;37.756;2023-08-06T01:36:39;3.22;;;2.35;;
75379;SDS011;65641;44.714;37.756;2023-08-06T01:37:48;3.13;;;2.63;;
75379;SDS011;65641;44.714;37.756;2023-08-06T01:38:59;2.50;;;2.30;;
75379;SDS011;65641;44.714;37.756;2023-08-06T01:40:11;3.83;;;2.55;;
75379;SDS011;65641;44.714;37.756;2023-08-06T01:41:20;3.97;;;2.47;;
75379;SDS011;65641;44.714;37.756;2023-08-06T01:42:29;2.67;;;2.47;;
75379;SDS011;65641;44.714;37.756;2023-08-06T01:43:38;3.95;;;2.72;;
75379;SDS011;65641;44.714;37.756;2023-08-06T01:44:47;3.13;;;2.80;;
75379;SDS011;65641;44.714;37.756;2023-08-06T01:45:55;2.80;;;2.47;;
75379;SDS011;65641;44.714;37.756;2023-08-06T01:47:05;2.65;;;2.40;;
75379;SDS011;65641;44.714;37.756;2023-08-06T01:48:16;3.05;;;2.75;;
75379;SDS011;65641;44.714;37.756;2023-08-06T01:49:37;3.08;;;2.80;;
75379;SDS011;65641;44.714;37.756;2023-08-06T01:50:46;3.05;;;2.60;;
75379;SDS011;65641;44.714;37.756;2023-08-06T01:51:55;4.05;;;2.50;;
75379;SDS011;65641;44.714;37.756;2023-08-06T01:53:04;3.15;;;2.50;;
75379;SDS011;65641;44.714;37.756;2023-08-06T01:54:13;3.38;;;2.53;;
75379;SDS011;65641;44.714;37.756;2023-08-06T01:55:21;2.50;;;2.30;;
75379;SDS011;65641;44.714;37.756;2023-08-06T01:56:32;3.42;;;2.40;;
75379;SDS011;65641;44.714;37.756;2023-08-06T01:57:41;2.78;;;2.58;;
75379;SDS011;65641;44.714;37.756;2023-08-06T01:58:50;2.90;;;2.50;;
75379;SDS011;65641;44.714;37.756;2023-08-06T02:00:01;3.15;;;2.85;;
75379;SDS011;65641;44.714;37.756;2023-08-06T02:01:19;3.40;;;2.83;;
75379;SDS011;65641;44.714;37.756;2023-08-06T02:02:28;3.03;;;2.58;;
75379;SDS011;65641;44.714;37.756;2023-08-06T02:03:37;3.15;;;2.55;;
75379;SDS011;65641;44.714;37.756;2023-08-06T02:04:46;3.75;;;2.22;;
75379;SDS011;65641;44.714;37.756;2023-08-06T02:05:55;2.97;;;2.45;;
75379;SDS011;65641;44.714;37.756;2023-08-06T02:07:03;3.47;;;2.55;;
75379;SDS011;65641;44.714;37.756;2023-08-06T02:08:12;3.75;;;3.28;;
75379;SDS011;65641;44.714;37.756;2023-08-06T02:09:20;4.13;;;2.80;;
75379;SDS011;65641;44.714;37.756;2023-08-06T02:10:29;3.15;;;2.60;;
75379;SDS011;65641;44.714;37.756;2023-08-06T02:11:37;3.50;;;2.85;;
75379;SDS011;65641;44.714;37.756;2023-08-06T02:12:46;3.70;;;2.55;;
75379;SDS011;65641;44.714;37.756;2023-08-06T02:13:55;4.53;;;2.63;;
75379;SDS011;65641;44.714;37.756;2023-08-06T02:15:04;3.53;;;3.00;;
75379;SDS011;65641;44.714;37.756;2023-08-06T02:16:13;4.10;;;2.72;;
75379;SDS011;65641;44.714;37.756;2023-08-06T02:17:22;3.35;;;2.65;;
75379;SDS011;65641;44.714;37.756;2023-08-06T02:18:30;3.13;;;2.80;;
75379;SDS011;65641;44.714;37.756;2023-08-06T02:19:40;3.35;;;2.88;;
75379;SDS011;65641;44.714;37.756;2023-08-06T02:20:58;3.53;;;2.42;;
75379;SDS011;65641;44.714;37.756;2023-08-06T02:22:08;2.75;;;2.28;;
75379;SDS011;65641;44.714;37.756;2023-08-06T02:23:18;3.92;;;2.33;;
75379;SDS011;65641;44.714;37.756;2023-08-06T02:24:27;4.20;;;2.80;;
75379;SDS011;65641;44.714;37.756;2023-08-06T02:25:35;3.53;;;2.80;;
75379;SDS011;65641;44.714;37.756;2023-08-06T02:26:44;3.25;;;2.58;;
75379;SDS011;65641;44.714;37.756;2023-08-06T02:27:53;3.42;;;2.80;;
75379;SDS011;65641;44.714;37.756;2023-08-06T02:29:01;3.28;;;2.65;;
75379;SDS011;65641;44.714;37.756;2023-08-06T02:30:10;4.30;;;2.60;;
75379;SDS011;65641;44.714;37.756;2023-08-06T02:31:19;4.38;;;4.00;;
75379;SDS011;65641;44.714;37.756;2023-08-06T02:32:28;4.55;;;3.00;;
75379;SDS011;65641;44.714;37.756;2023-08-06T02:33:40;3.30;;;2.72;;
75379;SDS011;65641;44.714;37.756;2023-08-06T02:34:49;3.60;;;2.95;;
75379;SDS011;65641;44.714;37.756;2023-08-06T02:36:03;3.17;;;2.55;;
75379;SDS011;65641;44.714;37.756;2023-08-06T02:37:12;4.43;;;4.07;;
75379;SDS011;65641;44.714;37.756;2023-08-06T02:38:21;4.00;;;2.80;;
75379;SDS011;65641;44.714;37.756;2023-08-06T02:39:29;3.40;;;2.80;;
75379;SDS011;65641;44.714;37.756;2023-08-06T02:40:44;3.58;;;2.83;;
75379;SDS011;65641;44.714;37.756;2023-08-06T02:41:53;3.97;;;2.97;;
75379;SDS011;65641;44.714;37.756;2023-08-06T02:43:02;3.28;;;2.70;;
75379;SDS011;65641;44.714;37.756;2023-08-06T02:44:12;3.17;;;2.45;;
75379;SDS011;65641;44.714;37.756;2023-08-06T02:45:20;3.88;;;2.53;;
75379;SDS011;65641;44.714;37.756;2023-08-06T02:46:28;3.63;;;3.00;;
75379;SDS011;65641;44.714;37.756;2023-08-06T02:47:37;3.10;;;2.78;;
75379;SDS011;65641;44.714;37.756;2023-08-06T02:48:46;3.60;;;2.90;;
75379;SDS011;65641;44.714;37.756;2023-08-06T02:49:55;4.20;;;2.85;;
75379;SDS011;65641;44.714;37.756;2023-08-06T02:51:04;4.45;;;3.08;;
75379;SDS011;65641;44.714;37.756;2023-08-06T02:52:13;3.58;;;2.72;;
75379;SDS011;65641;44.714;37.756;2023-08-06T02:53:22;3.42;;;3.03;;
75379;SDS011;65641;44.714;37.756;2023-08-06T02:54:31;3.50;;;3.00;;
75379;SDS011;65641;44.714;37.756;2023-08-06T02:55:44;3.40;;;2.70;;
75379;SDS011;65641;44.714;37.756;2023-08-06T02:57:00;3.63;;;2.78;;
75379;SDS011;65641;44.714;37.756;2023-08-06T02:58:12;4.00;;;2.70;;
75379;SDS011;65641;44.714;37.756;2023-08-06T02:59:25;3.30;;;3.00;;
75379;SDS011;65641;44.714;37.756;2023-08-06T03:01:00;3.80;;;2.83;;
75379;SDS011;65641;44.714;37.756;2023-08-06T03:02:14;3.65;;;3.35;;
75379;SDS011;65641;44.714;37.756;2023-08-06T03:03:48;3.50;;;2.78;;
75379;SDS011;65641;44.714;37.756;2023-08-06T03:05:04;3.42;;;3.08;;
75379;SDS011;65641;44.714;37.756;2023-08-06T03:06:18;4.15;;;3.00;;
75379;SDS011;65641;44.714;37.756;2023-08-06T03:07:30;3.42;;;2.70;;
75379;SDS011;65641;44.714;37.756;2023-08-06T03:08:45;3.67;;;2.85;;
75379;SDS011;65641;44.714;37.756;2023-08-06T03:09:54;3.83;;;2.90;;
75379;SDS011;65641;44.714;37.756;2023-08-06T03:11:03;4.28;;;3.80;;
75379;SDS011;65641;44.714;37.756;2023-08-06T03:12:12;4.03;;;3.30;;
75379;SDS011;65641;44.714;37.756;2023-08-06T03:13:20;3.33;;;2.60;;
75379;SDS011;65641;44.714;37.756;2023-08-06T03:14:29;4.18;;;3.80;;
75379;SDS011;65641;44.714;37.756;2023-08-06T03:15:38;3.67;;;2.88;;
75379;SDS011;65641;44.714;37.756;2023-08-06T03:16:48;4.38;;;4.00;;
75379;SDS011;65641;44.714;37.756;2023-08-06T03:19:13;3.20;;;2.78;;
75379;SDS011;65641;44.714;37.756;2023-08-06T03:20:22;3.28;;;2.53;;
75379;SDS011;65641;44.714;37.756;2023-08-06T03:21:33;4.40;;;4.00;;
75379;SDS011;65641;44.714;37.756;2023-08-06T03:22:43;3.70;;;2.83;;
75379;SDS011;65641;44.714;37.756;2023-08-06T03:23:52;5.03;;;3.13;;
75379;SDS011;65641;44.714;37.756;2023-08-06T03:25:04;3.40;;;3.10;;
75379;SDS011;65641;44.714;37.756;2023-08-06T03:26:17;3.83;;;2.90;;
75379;SDS011;65641;44.714;37.756;2023-08-06T03:27:28;3.95;;;3.30;;
75379;SDS011;65641;44.714;37.756;2023-08-06T03:28:36;3.30;;;2.97;;
75379;SDS011;65641;44.714;37.756;2023-08-06T03:29:48;4.03;;;3.03;;
75379;SDS011;65641;44.714;37.756;2023-08-06T03:31:00;4.15;;;3.30;;
75379;SDS011;65641;44.714;37.756;2023-08-06T03:32:18;3.63;;;3.33;;
75379;SDS011;65641;44.714;37.756;2023-08-06T03:33:27;4.40;;;3.03;;
75379;SDS011;65641;44.714;37.756;2023-08-06T03:34:36;3.42;;;2.90;;
75379;SDS011;65641;44.714;37.756;2023-08-06T03:35:45;3.25;;;2.80;;
75379;SDS011;65641;44.714;37.756;2023-08-06T03:36:53;3.75;;;3.33;;
75379;SDS011;65641;44.714;37.756;2023-08-06T03:38:02;4.38;;;3.08;;
75379;SDS011;65641;44.714;37.756;2023-08-06T03:39:11;3.85;;;2.83;;
75379;SDS011;65641;44.714;37.756;2023-08-06T03:40:20;3.50;;;2.90;;
75379;SDS011;65641;44.714;37.756;2023-08-06T03:41:29;5.20;;;3.20;;
75379;SDS011;65641;44.714;37.756;2023-08-06T03:42:38;3.85;;;3.05;;
75379;SDS011;65641;44.714;37.756;2023-08-06T03:43:50;3.45;;;2.65;;
75379;SDS011;65641;44.714;37.756;2023-08-06T03:45:04;3.75;;;3.10;;
75379;SDS011;65641;44.714;37.756;2023-08-06T03:46:13;3.00;;;2.70;;
75379;SDS011;65641;44.714;37.756;2023-08-06T03:47:22;3.47;;;3.08;;
75379;SDS011;65641;44.714;37.756;2023-08-06T03:48:32;3.20;;;2.55;;
75379;SDS011;65641;44.714;37.756;2023-08-06T03:49:41;3.83;;;3.15;;
75379;SDS011;65641;44.714;37.756;2023-08-06T03:50:50;3.75;;;3.17;;
75379;SDS011;65641;44.714;37.756;2023-08-06T03:51:59;3.33;;;2.53;;
75379;SDS011;65641;44.714;37.756;2023-08-06T03:53:08;2.90;;;2.60;;
75379;SDS011;65641;44.714;37.756;2023-08-06T03:54:16;4.00;;;3.47;;
75379;SDS011;65641;44.714;37.756;2023-08-06T03:55:24;3.22;;;2.90;;
75379;SDS011;65641;44.714;37.756;2023-08-06T03:56:33;4.43;;;2.90;;
75379;SDS011;65641;44.714;37.756;2023-08-06T03:57:42;6.00;;;3.33;;
75379;SDS011;65641;44.714;37.756;2023-08-06T03:58:50;3.63;;;3.13;;
75379;SDS011;65641;44.714;37.756;2023-08-06T03:59:59;3.58;;;3.13;;
75379;SDS011;65641;44.714;37.756;2023-08-06T04:01:11;4.97;;;3.05;;
75379;SDS011;65641;44.714;37.756;2023-08-06T04:02:24;3.38;;;3.05;;
75379;SDS011;65641;44.714;37.756;2023-08-06T04:03:33;3.03;;;2.72;;
75379;SDS011;65641;44.714;37.756;2023-08-06T04:04:42;3.88;;;3.30;;
75379;SDS011;65641;44.714;37.756;2023-08-06T04:05:51;4.13;;;3.45;;
75379;SDS011;65641;44.714;37.756;2023-08-06T04:07:00;3.65;;;3.17;;
75379;SDS011;65641;44.714;37.756;2023-08-06T04:08:08;3.55;;;2.78;;
75379;SDS011;65641;44.714;37.756;2023-08-06T04:09:17;3.55;;;2.75;;
75379;SDS011;65641;44.714;37.756;2023-08-06T04:10:26;2.90;;;2.60;;
75379;SDS011;65641;44.714;37.756;2023-08-06T04:11:34;3.85;;;3.10;;
75379;SDS011;65641;44.714;37.756;2023-08-06T04:12:43;3.90;;;3.22;;
75379;SDS011;65641;44.714;37.756;2023-08-06T04:13:52;3.80;;;2.70;;
75379;SDS011;65641;44.714;37.756;2023-08-06T04:15:04;3.22;;;2.80;;
75379;SDS011;65641;44.714;37.756;2023-08-06T04:16:14;3.08;;;2.67;;
75379;SDS011;65641;44.714;37.756;2023-08-06T04:17:23;3.70;;;3.05;;
75379;SDS011;65641;44.714;37.756;2023-08-06T04:18:32;3.83;;;3.33;;
75379;SDS011;65641;44.714;37.756;2023-08-06T04:19:40;3.60;;;3.20;;
75379;SDS011;65641;44.714;37.756;2023-08-06T04:20:49;3.60;;;2.70;;
75379;SDS011;65641;44.714;37.756;2023-08-06T04:21:57;4.30;;;3.00;;
75379;SDS011;65641;44.714;37.756;2023-08-06T04:23:06;3.90;;;3.05;;
75379;SDS011;65641;44.714;37.756;2023-08-06T04:24:15;3.95;;;2.88;;
75379;SDS011;65641;44.714;37.756;2023-08-06T04:25:24;3.88;;;3.50;;
75379;SDS011;65641;44.714;37.756;2023-08-06T04:26:32;4.28;;;3.38;;
75379;SDS011;65641;44.714;37.756;2023-08-06T04:27:41;3.63;;;3.20;;
75379;SDS011;65641;44.714;37.756;2023-08-06T04:28:50;5.68;;;5.28;;
75379;SDS011;65641;44.714;37.756;2023-08-06T04:29:59;3.65;;;2.78;;
75379;SDS011;65641;44.714;37.756;2023-08-06T04:31:09;3.80;;;3.40;;
75379;SDS011;65641;44.714;37.756;2023-08-06T04:32:20;4.05;;;3.65;;
75379;SDS011;65641;44.714;37.756;2023-08-06T04:33:32;5.03;;;4.43;;
75379;SDS011;65641;44.714;37.756;2023-08-06T04:34:46;3.88;;;3.28;;
75379;SDS011;65641;44.714;37.756;2023-08-06T04:35:56;3.60;;;3.22;;
75379;SDS011;65641;44.714;37.756;2023-08-06T04:37:07;3.95;;;3.50;;
75379;SDS011;65641;44.714;37.756;2023-08-06T04:38:15;4.18;;;3.25;;
75379;SDS011;65641;44.714;37.756;2023-08-06T04:39:24;4.55;;;3.40;;
75379;SDS011;65641;44.714;37.756;2023-08-06T04:40:34;5.32;;;3.13;;
75379;SDS011;65641;44.714;37.756;2023-08-06T04:41:43;3.45;;;3.15;;
75379;SDS011;65641;44.714;37.756;2023-08-06T04:42:52;3.97;;;3.15;;
75379;SDS011;65641;44.714;37.756;2023-08-06T04:44:01;3.67;;;2.90;;
75379;SDS011;65641;44.714;37.756;2023-08-06T04:45:10;3.90;;;3.20;;
75379;SDS011;65641;44.714;37.756;2023-08-06T04:46:18;4.75;;;3.13;;
75379;SDS011;65641;44.714;37.756;2023-08-06T04:47:27;5.72;;;3.60;;
75379;SDS011;65641;44.714;37.756;2023-08-06T04:48:35;3.38;;;3.08;;
75379;SDS011;65641;44.714;37.756;2023-08-06T04:49:44;4.05;;;3.25;;
75379;SDS011;65641;44.714;37.756;2023-08-06T04:50:52;4.10;;;3.70;;
75379;SDS011;65641;44.714;37.756;2023-08-06T04:52:02;3.72;;;3.35;;
75379;SDS011;65641;44.714;37.756;2023-08-06T04:53:11;3.95;;;3.28;;
75379;SDS011;65641;44.714;37.756;2023-08-06T04:54:19;4.15;;;3.60;;
75379;SDS011;65641;44.714;37.756;2023-08-06T04:55:28;5.30;;;3.38;;
75379;SDS011;65641;44.714;37.756;2023-08-06T04:56:38;4.40;;;3.83;;
75379;SDS011;65641;44.714;37.756;2023-08-06T04:57:46;4.65;;;3.63;;
75379;SDS011;65641;44.714;37.756;2023-08-06T04:58:55;5.50;;;3.40;;
75379;SDS011;65641;44.714;37.756;2023-08-06T05:00:04;4.75;;;3.35;;
75379;SDS011;65641;44.714;37.756;2023-08-06T05:01:13;4.07;;;3.20;;
75379;SDS011;65641;44.714;37.756;2023-08-06T05:02:22;5.63;;;3.88;;
75379;SDS011;65641;44.714;37.756;2023-08-06T05:03:30;4.57;;;3.53;;
75379;SDS011;65641;44.714;37.756;2023-08-06T05:04:39;5.35;;;4.20;;
75379;SDS011;65641;44.714;37.756;2023-08-06T05:05:48;5.57;;;3.95;;
75379;SDS011;65641;44.714;37.756;2023-08-06T05:06:58;4.18;;;3.20;;
75379;SDS011;65641;44.714;37.756;2023-08-06T05:08:15;5.28;;;3.80;;
75379;SDS011;65641;44.714;37.756;2023-08-06T05:09:21;4.22;;;3.75;;
75379;SDS011;65641;44.714;37.756;2023-08-06T05:10:25;5.18;;;3.83;;
75379;SDS011;65641;44.714;37.756;2023-08-06T05:11:29;4.43;;;3.80;;
75379;SDS011;65641;44.714;37.756;2023-08-06T05:12:32;4.82;;;3.58;;
75379;SDS011;65641;44.714;37.756;2023-08-06T05:13:35;4.70;;;3.30;;
75379;SDS011;65641;44.714;37.756;2023-08-06T05:14:38;5.07;;;4.68;;
75379;SDS011;65641;44.714;37.756;2023-08-06T05:15:42;5.20;;;4.10;;
75379;SDS011;65641;44.714;37.756;2023-08-06T05:16:47;5.63;;;4.38;;
75379;SDS011;65641;44.714;37.756;2023-08-06T05:17:51;6.03;;;4.03;;
75379;SDS011;65641;44.714;37.756;2023-08-06T05:18:54;5.28;;;4.13;;
75379;SDS011;65641;44.714;37.756;2023-08-06T05:19:57;4.88;;;3.67;;
75379;SDS011;65641;44.714;37.756;2023-08-06T05:21:00;5.32;;;3.95;;
75379;SDS011;65641;44.714;37.756;2023-08-06T05:22:04;4.70;;;4.00;;
75379;SDS011;65641;44.714;37.756;2023-08-06T05:23:07;4.95;;;4.45;;
75379;SDS011;65641;44.714;37.756;2023-08-06T05:24:10;5.22;;;3.85;;
75379;SDS011;65641;44.714;37.756;2023-08-06T05:25:14;5.05;;;4.55;;
75379;SDS011;65641;44.714;37.756;2023-08-06T05:26:18;4.72;;;3.45;;
75379;SDS011;65641;44.714;37.756;2023-08-06T05:27:21;4.72;;;4.15;;
75379;SDS011;65641;44.714;37.756;2023-08-06T05:28:25;6.03;;;4.47;;
75379;SDS011;65641;44.714;37.756;2023-08-06T05:29:28;4.88;;;3.88;;
75379;SDS011;65641;44.714;37.756;2023-08-06T05:30:31;4.13;;;3.55;;
75379;SDS011;65641;44.714;37.756;2023-08-06T05:31:34;5.22;;;4.20;;
75379;SDS011;65641;44.714;37.756;2023-08-06T05:32:43;5.88;;;3.88;;
75379;SDS011;65641;44.714;37.756;2023-08-06T05:33:46;5.63;;;4.53;;
75379;SDS011;65641;44.714;37.756;2023-08-06T05:34:50;4.95;;;4.35;;
75379;SDS011;65641;44.714;37.756;2023-08-06T05:35:53;5.00;;;4.25;;
75379;SDS011;65641;44.714;37.756;2023-08-06T05:36:56;6.30;;;3.85;;
75379;SDS011;65641;44.714;37.756;2023-08-06T05:37:59;4.05;;;3.65;;
75379;SDS011;65641;44.714;37.756;2023-08-06T05:39:03;5.13;;;3.78;;
75379;SDS011;65641;44.714;37.756;2023-08-06T05:40:06;5.88;;;4.15;;
75379;SDS011;65641;44.714;37.756;2023-08-06T05:41:10;4.72;;;3.75;;
75379;SDS011;65641;44.714;37.756;2023-08-06T05:42:13;4.18;;;3.75;;
75379;SDS011;65641;44.714;37.756;2023-08-06T05:43:16;5.43;;;3.70;;
75379;SDS011;65641;44.714;37.756;2023-08-06T05:44:19;6.05;;;3.90;;
75379;SDS011;65641;44.714;37.756;2023-08-06T05:45:22;5.20;;;4.00;;
75379;SDS011;65641;44.714;37.756;2023-08-06T05:46:26;4.45;;;3.88;;
75379;SDS011;65641;44.714;37.756;2023-08-06T05:47:29;5.60;;;3.75;;
75379;SDS011;65641;44.714;37.756;2023-08-06T05:48:32;6.35;;;4.28;;
75379;SDS011;65641;44.714;37.756;2023-08-06T05:49:35;5.07;;;4.05;;
75379;SDS011;65641;44.714;37.756;2023-08-06T05:50:39;5.00;;;4.22;;
75379;SDS011;65641;44.714;37.756;2023-08-06T05:51:42;4.80;;;3.85;;
75379;SDS011;65641;44.714;37.756;2023-08-06T05:52:45;5.05;;;3.88;;
75379;SDS011;65641;44.714;37.756;2023-08-06T05:53:48;4.97;;;3.85;;
75379;SDS011;65641;44.714;37.756;2023-08-06T05:54:52;5.28;;;4.78;;
75379;SDS011;65641;44.714;37.756;2023-08-06T05:55:57;4.30;;;3.80;;
75379;SDS011;65641;44.714;37.756;2023-08-06T05:57:00;4.93;;;3.90;;
75379;SDS011;65641;44.714;37.756;2023-08-06T05:58:04;4.32;;;3.88;;
75379;SDS011;65641;44.714;37.756;2023-08-06T05:59:07;4.50;;;3.67;;
75379;SDS011;65641;44.714;37.756;2023-08-06T06:00:10;4.38;;;3.83;;
75379;SDS011;65641;44.714;37.756;2023-08-06T06:01:14;4.35;;;3.78;;
75379;SDS011;65641;44.714;37.756;2023-08-06T06:02:17;4.68;;;3.83;;
75379;SDS011;65641;44.714;37.756;2023-08-06T06:03:21;5.82;;;5.03;;
75379;SDS011;65641;44.714;37.756;2023-08-06T06:04:24;4.82;;;4.13;;
75379;SDS011;65641;44.714;37.756;2023-08-06T06:05:28;5.50;;;4.10;;
75379;SDS011;65641;44.714;37.756;2023-08-06T06:06:31;4.75;;;3.33;;
75379;SDS011;65641;44.714;37.756;2023-08-06T06:07:35;4.82;;;3.90;;
75379;SDS011;65641;44.714;37.756;2023-08-06T06:08:38;4.28;;;3.88;;
75379;SDS011;65641;44.714;37.756;2023-08-06T06:09:41;5.68;;;3.78;;
75379;SDS011;65641;44.714;37.756;2023-08-06T06:10:45;4.47;;;4.00;;
75379;SDS011;65641;44.714;37.756;2023-08-06T06:11:48;5.88;;;5.28;;
75379;SDS011;65641;44.714;37.756;2023-08-06T06:12:53;4.97;;;4.13;;
75379;SDS011;65641;44.714;37.756;2023-08-06T06:13:56;5.55;;;3.60;;
75379;SDS011;65641;44.714;37.756;2023-08-06T06:15:00;5.47;;;3.92;;
75379;SDS011;65641;44.714;37.756;2023-08-06T06:16:03;4.90;;;3.97;;
75379;SDS011;65641;44.714;37.756;2023-08-06T06:17:08;5.40;;;4.25;;
75379;SDS011;65641;44.714;37.756;2023-08-06T06:18:11;4.18;;;3.78;;
75379;SDS011;65641;44.714;37.756;2023-08-06T06:19:14;4.63;;;3.72;;
75379;SDS011;65641;44.714;37.756;2023-08-06T06:20:19;4.38;;;3.83;;
75379;SDS011;65641;44.714;37.756;2023-08-06T06:21:22;5.38;;;3.90;;
75379;SDS011;65641;44.714;37.756;2023-08-06T06:22:26;4.93;;;3.95;;
75379;SDS011;65641;44.714;37.756;2023-08-06T06:23:30;4.30;;;3.75;;
75379;SDS011;65641;44.714;37.756;2023-08-06T06:24:33;4.75;;;4.07;;
75379;SDS011;65641;44.714;37.756;2023-08-06T06:25:41;4.35;;;3.70;;
75379;SDS011;65641;44.714;37.756;2023-08-06T06:26:45;4.65;;;3.50;;
75379;SDS011;65641;44.714;37.756;2023-08-06T06:27:49;4.43;;;4.00;;
75379;SDS011;65641;44.714;37.756;2023-08-06T06:28:52;4.00;;;3.58;;
75379;SDS011;65641;44.714;37.756;2023-08-06T06:29:55;4.20;;;3.35;;
75379;SDS011;65641;44.714;37.756;2023-08-06T06:31:02;5.63;;;3.58;;
75379;SDS011;65641;44.714;37.756;2023-08-06T06:32:12;7.03;;;3.85;;
75379;SDS011;65641;44.714;37.756;2023-08-06T06:33:15;5.20;;;3.50;;
75379;SDS011;65641;44.714;37.756;2023-08-06T06:34:18;3.95;;;3.55;;
75379;SDS011;65641;44.714;37.756;2023-08-06T06:35:21;5.20;;;3.28;;
75379;SDS011;65641;44.714;37.756;2023-08-06T06:36:25;5.30;;;3.85;;
75379;SDS011;65641;44.714;37.756;2023-08-06T06:37:28;5.75;;;3.92;;
75379;SDS011;65641;44.714;37.756;2023-08-06T06:38:31;4.55;;;3.90;;
75379;SDS011;65641;44.714;37.756;2023-08-06T06:39:35;5.13;;;4.07;;
75379;SDS011;65641;44.714;37.756;2023-08-06T06:40:38;4.40;;;3.42;;
75379;SDS011;65641;44.714;37.756;2023-08-06T06:41:41;4.35;;;3.95;;
75379;SDS011;65641;44.714;37.756;2023-08-06T06:42:53;4.75;;;3.80;;
75379;SDS011;65641;44.714;37.756;2023-08-06T06:43:56;5.00;;;3.28;;
75379;SDS011;65641;44.714;37.756;2023-08-06T06:45:01;3.83;;;3.25;;
75379;SDS011;65641;44.714;37.756;2023-08-06T06:46:05;3.97;;;3.40;;
75379;SDS011;65641;44.714;37.756;2023-08-06T06:47:08;4.43;;;3.63;;
75379;SDS011;65641;44.714;37.756;2023-08-06T06:48:12;4.00;;;3.45;;
75379;SDS011;65641;44.714;37.756;2023-08-06T06:49:15;4.63;;;4.00;;
75379;SDS011;65641;44.714;37.756;2023-08-06T06:50:18;4.15;;;3.75;;
75379;SDS011;65641;44.714;37.756;2023-08-06T06:51:22;4.47;;;3.33;;
75379;SDS011;65641;44.714;37.756;2023-08-06T06:52:25;4.43;;;3.95;;